Time;durP1;ratioP1;P1;durP2;ratioP2;P2;SDS_P1;SDS_P2;PMS_P1;PMS_P2;Temp;Humidity;BMP_temperature;BMP_pressure;BME280_temperature;BME280_humidity;BME280_pressure;Samples;Min_cycle;Max_cycle;Signal;HPM_P1;HPM_P2
2022/09/08 00:00:06;;;;;;;8.73;1.00;;;15.60;99.90;;;;;;4955861;28;20365;-82
2022/09/08 00:02:35;;;;;;;6.28;1.25;;;15.60;99.90;;;;;;4954591;28;20118;-82
2022/09/08 00:05:01;;;;;;;5.63;1.60;;;15.60;99.90;;;;;;4955913;28;20026;-82
2022/09/08 00:07:28;;;;;;;3.17;0.63;;;15.60;99.90;;;;;;4947928;29;20082;-81
2022/09/08 00:09:54;;;;;;;6.20;0.77;;;15.70;99.90;;;;;;4954544;28;20022;-83
2022/09/08 00:12:21;;;;;;;7.97;1.02;;;15.70;99.90;;;;;;4954411;28;20039;-82
2022/09/08 00:14:46;;;;;;;5.80;0.88;;;15.70;99.90;;;;;;4955144;28;20038;-82
2022/09/08 00:17:12;;;;;;;7.75;1.02;;;15.70;99.90;;;;;;4955583;28;20024;-81
2022/09/08 00:19:38;;;;;;;10.10;1.30;;;15.80;99.90;;;;;;4955651;28;20034;-82
2022/09/08 00:22:04;;;;;;;7.88;1.23;;;15.80;99.90;;;;;;4955792;28;20468;-82
2022/09/08 00:24:29;;;;;;;8.40;1.00;;;15.70;99.90;;;;;;4955469;28;20027;-82
2022/09/08 00:26:55;;;;;;;8.82;0.60;;;15.70;99.90;;;;;;4955883;28;20027;-82
2022/09/08 00:29:21;;;;;;;3.78;0.63;;;15.70;99.90;;;;;;4955249;28;20034;-82
2022/09/08 00:31:47;;;;;;;4.97;0.45;;;15.60;99.90;;;;;;4970380;28;20020;-81
2022/09/08 00:34:12;;;;;;;5.32;0.68;;;15.50;99.90;;;;;;4955131;28;20376;-81
2022/09/08 00:36:38;;;;;;;3.45;0.73;;;15.30;99.90;;;;;;4954201;28;20488;-81
2022/09/08 00:39:04;;;;;;;2.53;0.50;;;15.30;99.90;;;;;;4955261;29;20025;-81
2022/09/08 00:41:30;;;;;;;2.95;0.73;;;15.20;99.90;;;;;;4955263;28;20047;-82
2022/09/08 00:44:00;;;;;;;4.18;0.73;;;15.10;99.90;;;;;;4955488;28;20086;-81
2022/09/08 00:46:29;;;;;;;2.93;0.70;;;15.10;99.90;;;;;;4955487;28;20024;-82
2022/09/08 00:49:16;;;;;;;4.95;0.77;;;15.00;99.90;;;;;;4955520;28;20031;-82
2022/09/08 00:51:45;;;;;;;2.88;0.85;;;14.90;99.90;;;;;;4954813;28;20054;-82
2022/09/08 00:54:12;;;;;;;3.20;0.30;;;14.90;99.90;;;;;;4955006;28;20024;-82
2022/09/08 00:56:41;;;;;;;1.40;0.45;;;14.80;99.90;;;;;;4954419;28;20039;-81
2022/09/08 00:59:08;;;;;;;4.03;0.60;;;14.80;99.90;;;;;;4954813;29;20503;-81
2022/09/08 01:01:35;;;;;;;5.68;0.70;;;14.80;99.90;;;;;;4954842;28;20027;-82
2022/09/08 01:04:03;;;;;;;3.20;0.47;;;14.80;99.90;;;;;;4954850;28;20453;-82
2022/09/08 01:12:52;;;;;;;3.85;0.70;;;14.60;99.90;;;;;;4954851;28;20620;-81
2022/09/08 01:15:23;;;;;;;5.68;1.20;;;14.70;99.90;;;;;;4954413;28;20106;-81
2022/09/08 01:17:51;;;;;;;3.67;0.65;;;14.70;99.90;;;;;;4954558;28;20039;-82
2022/09/08 01:20:20;;;;;;;2.35;0.57;;;14.50;99.90;;;;;;4954628;28;20023;-81
2022/09/08 01:22:58;;;;;;;2.00;0.50;;;14.50;99.90;;;;;;4953389;28;20023;-81
2022/09/08 01:25:28;;;;;;;6.65;0.47;;;14.60;99.90;;;;;;4955102;28;20006;-81
2022/09/08 01:28:19;;;;;;;2.53;0.65;;;14.60;99.90;;;;;;4954708;28;20023;-82
2022/09/08 01:30:49;;;;;;;5.53;0.60;;;14.60;99.90;;;;;;4954213;28;20046;-82
2022/09/08 01:33:16;;;;;;;5.80;0.90;;;14.60;99.90;;;;;;4954583;28;20031;-82
2022/09/08 01:35:43;;;;;;;1.42;0.90;;;14.60;99.90;;;;;;4953313;28;20381;-82
2022/09/08 01:38:10;;;;;;;2.63;0.55;;;14.60;99.90;;;;;;4954512;28;20026;-82
2022/09/08 01:40:38;;;;;;;4.63;0.75;;;14.50;99.90;;;;;;4953832;28;20035;-82
2022/09/08 01:43:08;;;;;;;2.45;0.43;;;14.50;99.90;;;;;;4954447;28;20361;-82
2022/09/08 01:45:37;;;;;;;3.92;0.70;;;14.50;99.90;;;;;;4954243;28;20421;-82
2022/09/08 01:48:03;;;;;;;4.47;0.80;;;14.60;99.90;;;;;;4954419;29;20016;-83
2022/09/08 01:50:29;;;;;;;8.75;1.00;;;14.70;99.90;;;;;;4954062;28;20054;-84
2022/09/08 01:52:54;;;;;;;14.45;1.40;;;14.80;99.90;;;;;;4953224;28;20392;-84
2022/09/08 01:55:20;;;;;;;7.95;0.95;;;14.80;99.90;;;;;;4954071;28;20027;-84
2022/09/08 01:57:47;;;;;;;11.13;1.48;;;14.80;99.90;;;;;;4969185;28;20074;-84
2022/09/08 02:00:13;;;;;;;8.55;1.67;;;14.90;99.90;;;;;;4953732;28;20098;-84
2022/09/08 02:02:39;;;;;;;8.65;1.55;;;14.90;99.90;;;;;;4952732;29;20035;-84
2022/09/08 02:05:05;;;;;;;10.15;1.70;;;15.00;99.90;;;;;;4953809;29;20027;-83
2022/09/08 02:07:32;;;;;;;8.50;1.70;;;15.00;99.90;;;;;;4953643;28;20019;-84
2022/09/08 02:09:58;;;;;;;11.13;1.30;;;15.10;99.90;;;;;;4954395;28;20031;-84
2022/09/08 02:12:24;;;;;;;4.60;1.63;;;15.20;99.90;;;;;;4952855;28;20727;-83
2022/09/08 02:14:49;;;;;;;7.70;1.20;;;15.20;99.90;;;;;;4953621;29;20180;-83
2022/09/08 02:17:15;;;;;;;4.72;1.10;;;15.20;99.90;;;;;;4953686;28;21069;-83
2022/09/08 02:19:41;;;;;;;8.38;1.67;;;15.30;99.90;;;;;;4952106;28;20031;-83
2022/09/08 02:22:06;;;;;;;10.00;1.27;;;15.30;99.90;;;;;;4953122;28;20023;-84
2022/09/08 02:24:33;;;;;;;6.30;1.00;;;15.30;99.90;;;;;;4953363;28;20027;-84
2022/09/08 02:26:59;;;;;;;8.95;1.15;;;15.20;99.90;;;;;;4953768;28;20027;-83
2022/09/08 02:29:25;;;;;;;7.15;1.23;;;15.10;99.90;;;;;;4953732;28;20020;-84
2022/09/08 02:31:50;;;;;;;11.57;1.20;;;15.10;99.90;;;;;;4953615;28;20511;-83
2022/09/08 02:34:16;;;;;;;5.35;0.85;;;15.10;99.90;;;;;;4953418;28;20019;-84
2022/09/08 02:36:42;;;;;;;8.65;1.02;;;15.00;99.90;;;;;;4952898;28;20114;-83
2022/09/08 02:39:16;;;;;;;2.40;0.75;;;14.90;99.90;;;;;;4953575;28;20074;-84
2022/09/08 02:41:41;;;;;;;4.43;0.90;;;14.90;99.90;;;;;;4953510;28;20055;-84
2022/09/08 02:44:09;;;;;;;6.28;0.80;;;14.80;99.90;;;;;;4953351;28;20082;-84
2022/09/08 02:46:35;;;;;;;3.88;1.00;;;14.70;99.90;;;;;;4953731;28;20026;-84
2022/09/08 02:49:00;;;;;;;5.57;0.75;;;14.80;99.90;;;;;;4953587;28;20023;-84
2022/09/08 02:51:26;;;;;;;5.85;1.10;;;14.80;99.90;;;;;;4951899;28;20054;-85
2022/09/08 02:53:55;;;;;;;9.32;1.30;;;14.90;99.90;;;;;;4968376;28;20065;-84
2022/09/08 02:56:20;;;;;;;7.50;2.00;;;14.90;99.90;;;;;;4951849;28;20078;-83
2022/09/08 02:58:46;;;;;;;8.63;1.52;;;14.90;99.90;;;;;;4952156;28;20040;-84
2022/09/08 03:01:12;;;;;;;2.53;0.80;;;14.90;99.90;;;;;;4952018;28;20039;-84
2022/09/08 03:03:37;;;;;;;13.18;1.73;;;14.90;99.90;;;;;;4951977;28;20492;-85
2022/09/08 03:06:04;;;;;;;8.55;1.63;;;14.90;99.90;;;;;;4952894;28;20033;-85
2022/09/08 03:08:31;;;;;;;14.05;1.60;;;15.00;99.90;;;;;;4953243;28;20015;-85
2022/09/08 03:10:57;;;;;;;4.90;1.40;;;15.10;99.90;;;;;;4952928;28;20518;-85
2022/09/08 03:13:24;;;;;;;13.52;1.98;;;15.10;99.90;;;;;;4951762;28;20038;-85
2022/09/08 03:15:50;;;;;;;11.32;1.83;;;15.10;99.90;;;;;;4953042;28;20495;-85
2022/09/08 03:18:16;;;;;;;12.52;2.65;;;15.10;99.90;;;;;;4967882;28;20124;-86
2022/09/08 03:20:42;;;;;;;16.58;2.10;;;15.10;99.90;;;;;;4952714;29;20469;-84
2022/09/08 03:23:13;;;;;;;23.63;2.13;;;15.20;99.90;;;;;;4953169;28;20027;-85
2022/09/08 03:25:39;;;;;;;18.98;2.15;;;15.10;99.90;;;;;;4953826;28;20358;-86
2022/09/08 03:28:05;;;;;;;13.48;1.77;;;15.20;99.90;;;;;;4953112;28;20035;-85
2022/09/08 03:30:32;;;;;;;10.82;1.90;;;15.20;99.90;;;;;;4952789;28;20031;-85
2022/09/08 03:32:58;;;;;;;14.60;1.90;;;15.20;99.90;;;;;;4951470;28;20396;-86
2022/09/08 03:35:24;;;;;;;12.25;1.65;;;15.10;99.90;;;;;;4952450;28;20032;-85
2022/09/08 03:37:50;;;;;;;15.75;2.28;;;15.10;99.90;;;;;;4952860;28;20046;-84
2022/09/08 03:40:18;;;;;;;10.32;1.38;;;15.10;99.90;;;;;;4952863;29;20026;-85
2022/09/08 03:42:44;;;;;;;14.65;2.50;;;15.10;99.90;;;;;;4952985;28;20030;-85
2022/09/08 03:45:14;;;;;;;6.35;1.40;;;15.00;99.90;;;;;;4951831;28;20032;-85
2022/09/08 03:47:39;;;;;;;11.90;1.35;;;14.90;99.90;;;;;;4952952;29;20027;-85
2022/09/08 03:50:06;;;;;;;12.02;1.63;;;14.90;99.90;;;;;;4951046;28;20204;-85
2022/09/08 03:52:31;;;;;;;12.70;2.47;;;14.80;99.90;;;;;;4952546;28;20191;-84
2022/09/08 03:54:57;;;;;;;17.25;2.15;;;14.80;99.90;;;;;;4951292;28;20137;-85
2022/09/08 03:57:28;;;;;;;20.85;2.42;;;14.70;99.90;;;;;;4952321;28;20035;-83
2022/09/08 03:59:56;;;;;;;9.98;1.75;;;14.80;99.90;;;;;;4952532;28;20435;-85
2022/09/08 04:02:23;;;;;;;19.58;2.00;;;14.70;99.90;;;;;;4951483;28;20039;-86
2022/09/08 04:04:51;;;;;;;5.85;1.10;;;14.80;99.90;;;;;;4956139;28;20106;-86
2022/09/08 04:07:18;;;;;;;9.82;1.40;;;14.80;99.90;;;;;;4955897;28;20019;-84
2022/09/08 04:09:44;;;;;;;7.55;2.30;;;14.80;99.90;;;;;;4956056;28;20043;-85
2022/09/08 04:12:10;;;;;;;16.75;2.50;;;14.80;99.90;;;;;;4956191;28;20027;-84
2022/09/08 04:14:36;;;;;;;16.38;2.10;;;14.80;99.90;;;;;;4954800;28;20389;-84
2022/09/08 04:17:02;;;;;;;15.27;1.88;;;14.80;99.90;;;;;;4955931;28;20538;-85
2022/09/08 04:19:28;;;;;;;16.90;2.30;;;14.80;99.90;;;;;;4956011;28;20540;-84
2022/09/08 04:21:54;;;;;;;8.63;1.50;;;14.90;99.90;;;;;;4955566;29;20411;-84
2022/09/08 04:24:20;;;;;;;12.45;1.63;;;14.90;99.90;;;;;;4955631;28;20531;-86
2022/09/08 04:26:46;;;;;;;20.08;2.25;;;14.90;99.90;;;;;;4956034;28;20562;-85
2022/09/08 04:29:12;;;;;;;16.20;1.40;;;14.90;99.90;;;;;;4955516;28;20673;-84
2022/09/08 04:31:38;;;;;;;10.45;1.25;;;14.90;99.90;;;;;;4955578;28;20059;-85
2022/09/08 04:34:05;;;;;;;10.18;1.85;;;14.90;99.90;;;;;;4955797;28;20051;-84
2022/09/08 04:36:31;;;;;;;9.90;1.35;;;14.90;99.90;;;;;;4955159;28;20042;-82
2022/09/08 04:38:59;;;;;;;16.35;2.17;;;14.90;99.90;;;;;;4955691;28;20078;-82
2022/09/08 04:41:26;;;;;;;14.70;1.65;;;14.90;99.90;;;;;;4954682;28;20531;-82
2022/09/08 04:43:53;;;;;;;12.50;1.77;;;14.90;99.90;;;;;;4955411;28;20543;-82
2022/09/08 04:46:19;;;;;;;7.45;2.00;;;14.90;99.90;;;;;;4955369;28;20102;-82
2022/09/08 04:48:46;;;;;;;9.23;2.10;;;15.00;99.90;;;;;;4955516;28;20090;-82
2022/09/08 04:51:14;;;;;;;8.48;1.85;;;15.00;99.90;;;;;;4955251;28;20031;-82
2022/09/08 04:53:39;;;;;;;10.00;1.35;;;15.10;99.90;;;;;;4955367;28;20097;-83
2022/09/08 04:56:07;;;;;;;8.00;1.58;;;15.10;99.90;;;;;;4954767;28;20543;-82
2022/09/08 04:58:35;;;;;;;20.42;2.22;;;15.10;99.90;;;;;;4955051;28;20019;-82
2022/09/08 05:01:09;;;;;;;9.27;1.88;;;15.20;99.90;;;;;;4955078;28;20106;-83
2022/09/08 05:03:36;;;;;;;12.98;2.00;;;15.30;99.90;;;;;;4955429;28;20127;-83
2022/09/08 05:06:08;;;;;;;18.65;1.67;;;15.30;99.90;;;;;;4954921;28;20059;-83
2022/09/08 05:08:34;;;;;;;18.40;2.83;;;15.20;99.90;;;;;;4953837;28;20047;-82
2022/09/08 05:11:00;;;;;;;9.18;1.48;;;15.10;99.90;;;;;;4954752;28;20035;-82
2022/09/08 05:13:26;;;;;;;14.57;1.60;;;15.10;99.90;;;;;;4955122;28;20503;-83
2022/09/08 05:15:52;;;;;;;12.25;1.15;;;15.00;99.90;;;;;;4953472;28;20035;-83
2022/09/08 05:18:18;;;;;;;13.25;2.40;;;15.00;99.90;;;;;;4954766;29;20024;-83
2022/09/08 05:20:53;;;;;;;13.63;1.85;;;15.00;99.90;;;;;;4954683;28;20561;-83
2022/09/08 05:23:18;;;;;;;12.02;1.55;;;14.90;99.90;;;;;;4954875;28;20111;-83
2022/09/08 05:25:44;;;;;;;9.25;1.52;;;15.00;99.90;;;;;;4955103;28;20102;-82
2022/09/08 05:28:09;;;;;;;13.00;1.98;;;15.00;99.90;;;;;;4954636;28;20027;-84
2022/09/08 05:30:39;;;;;;;10.60;1.17;;;15.00;99.90;;;;;;4954310;28;20024;-84
2022/09/08 05:33:05;;;;;;;13.02;1.27;;;15.00;99.90;;;;;;4952833;29;20051;-84
2022/09/08 05:35:31;;;;;;;10.63;1.60;;;15.10;99.90;;;;;;4953337;28;20035;-83
2022/09/08 05:37:59;;;;;;;10.07;1.70;;;15.10;99.90;;;;;;4954488;28;20094;-83
2022/09/08 05:40:24;;;;;;;6.97;1.20;;;15.10;99.90;;;;;;4954463;28;20028;-82
2022/09/08 05:42:51;;;;;;;7.88;1.33;;;15.10;99.90;;;;;;4954247;29;20028;-83
2022/09/08 05:45:16;;;;;;;10.57;1.60;;;15.10;99.90;;;;;;4954245;28;20023;-82
2022/09/08 05:47:42;;;;;;;7.20;2.15;;;15.10;99.90;;;;;;4954321;28;20531;-83
2022/09/08 05:50:08;;;;;;;8.30;1.30;;;15.10;99.90;;;;;;4954141;28;20098;-83
2022/09/08 05:52:34;;;;;;;13.95;1.33;;;15.20;99.90;;;;;;4954166;28;20027;-82
2022/09/08 05:54:59;;;;;;;13.40;1.85;;;15.20;99.90;;;;;;4952574;28;20051;-82
2022/09/08 05:57:27;;;;;;;10.57;2.03;;;15.40;99.90;;;;;;4953732;28;20067;-83
2022/09/08 05:59:53;;;;;;;11.43;2.42;;;15.40;99.90;;;;;;4954361;28;20416;-82
2022/09/08 06:02:19;;;;;;;19.67;3.15;;;15.40;99.90;;;;;;4954271;28;20074;-83
2022/09/08 06:04:44;;;;;;;21.25;2.03;;;15.50;99.90;;;;;;4953734;28;20035;-83
2022/09/08 06:07:10;;;;;;;20.55;1.42;;;15.50;99.90;;;;;;4954107;28;20061;-83
2022/09/08 06:09:36;;;;;;;9.27;1.85;;;15.40;99.90;;;;;;4953911;29;20023;-81
2022/09/08 06:12:02;;;;;;;20.23;2.00;;;15.20;99.90;;;;;;4954239;28;20035;-82
2022/09/08 06:14:28;;;;;;;12.80;1.50;;;15.10;99.90;;;;;;4953762;28;20031;-81
2022/09/08 06:16:54;;;;;;;6.13;1.40;;;15.00;99.90;;;;;;4953583;28;20447;-82
2022/09/08 06:19:20;;;;;;;4.35;1.20;;;15.00;99.90;;;;;;4952365;28;20472;-83
2022/09/08 06:21:46;;;;;;;6.68;1.00;;;15.00;99.90;;;;;;4953857;28;20034;-83
2022/09/08 06:24:14;;;;;;;21.55;1.73;;;14.90;99.90;;;;;;4953855;29;20023;-82
2022/09/08 06:26:48;;;;;;;5.13;0.77;;;14.80;99.90;;;;;;4953913;28;20019;-82
2022/09/08 06:29:27;;;;;;;7.45;1.40;;;14.80;99.90;;;;;;4952451;28;20031;-82
2022/09/08 06:32:14;;;;;;;4.40;1.20;;;14.80;99.90;;;;;;4953309;28;20062;-83
2022/09/08 06:34:44;;;;;;;4.55;0.80;;;14.70;99.90;;;;;;4953117;28;20031;-83
2022/09/08 06:37:21;;;;;;;3.83;0.82;;;14.70;99.90;;;;;;4951271;28;20043;-82
2022/09/08 06:39:54;;;;;;;9.43;1.25;;;14.60;99.90;;;;;;4953465;28;20064;-82
2022/09/08 06:42:35;;;;;;;5.43;0.73;;;14.60;99.90;;;;;;4953066;28;20377;-81
2022/09/08 06:45:02;;;;;;;4.05;0.60;;;14.60;99.90;;;;;;4953700;28;20125;-84
2022/09/08 06:47:39;;;;;;;6.70;1.10;;;14.60;99.90;;;;;;4953691;28;20031;-84
2022/09/08 06:50:06;;;;;;;6.22;0.77;;;14.60;99.90;;;;;;4952750;28;20435;-84
2022/09/08 06:52:45;;;;;;;5.75;1.15;;;14.60;99.90;;;;;;4953182;28;20059;-84
2022/09/08 06:55:51;;;;;;;5.43;0.93;;;14.60;99.90;;;;;;4953274;28;20523;-84
2022/09/08 06:58:26;;;;;;;5.78;1.33;;;14.60;99.90;;;;;;4931250;29;20035;-85
2022/09/08 07:01:04;;;;;;;7.03;1.05;;;14.60;99.90;;;;;;4949955;28;20039;-84
2022/09/08 07:03:57;;;;;;;11.60;1.33;;;14.70;99.90;;;;;;4952806;28;20114;-85
2022/09/08 07:06:27;;;;;;;5.93;1.10;;;14.70;99.90;;;;;;4952729;28;20031;-83
2022/09/08 07:09:16;;;;;;;10.15;1.20;;;14.80;99.90;;;;;;4952090;28;20059;-85
2022/09/08 07:12:05;;;;;;;6.30;1.48;;;14.80;99.90;;;;;;4950964;28;20054;-85
2022/09/08 07:14:43;;;;;;;8.90;1.40;;;14.80;99.90;;;;;;4953429;29;20107;-84
2022/09/08 07:17:32;;;;;;;6.25;1.05;;;14.80;99.90;;;;;;4952236;28;20031;-85
2022/09/08 07:19:58;;;;;;;7.25;1.02;;;14.80;99.90;;;;;;4952829;29;20031;-85
2022/09/08 07:22:35;;;;;;;4.50;0.70;;;14.80;99.90;;;;;;4953232;29;20151;-84
2022/09/08 07:25:30;;;;;;;4.28;0.90;;;14.90;99.90;;;;;;4953470;28;20110;-84
2022/09/08 07:28:08;;;;;;;7.40;1.52;;;14.90;99.90;;;;;;4953155;28;20023;-84
2022/09/08 07:30:36;;;;;;;8.93;1.38;;;15.00;99.90;;;;;;4953099;28;20380;-84
2022/09/08 07:33:25;;;;;;;11.70;2.40;;;15.10;99.90;;;;;;4952922;28;20431;-84
2022/09/08 07:36:01;;;;;;;7.18;1.20;;;15.10;99.90;;;;;;4941208;28;20141;-84
2022/09/08 07:38:42;;;;;;;13.23;1.55;;;15.20;99.90;;;;;;4935375;28;20567;-84
2022/09/08 07:41:11;;;;;;;17.00;1.70;;;15.20;99.90;;;;;;4937693;29;20027;-83
2022/09/08 07:43:37;;;;;;;7.07;1.52;;;15.30;99.90;;;;;;4937698;29;20020;-83
2022/09/08 07:46:06;;;;;;;8.73;1.42;;;15.30;99.90;;;;;;4937139;29;20032;-83
2022/09/08 07:48:45;;;;;;;10.85;1.38;;;15.40;99.90;;;;;;4937410;29;20030;-86
2022/09/08 07:51:16;;;;;;;3.15;0.90;;;15.50;99.90;;;;;;4937339;29;20503;-86
2022/09/08 07:53:45;;;;;;;13.40;2.03;;;15.50;99.90;;;;;;4937553;29;20062;-86
2022/09/08 07:56:25;;;;;;;13.80;1.55;;;15.40;99.90;;;;;;4937590;29;20297;-86
2022/09/08 07:59:25;;;;;;;11.57;1.92;;;15.40;99.90;;;;;;4937534;29;20107;-86
2022/09/08 08:02:14;;;;;;;15.88;3.08;;;15.40;99.90;;;;;;4937382;29;20115;-85
2022/09/08 08:05:08;;;;;;;14.93;2.72;;;15.50;99.90;;;;;;4937195;29;20027;-85
2022/09/08 08:07:50;;;;;;;9.43;3.20;;;15.70;99.90;;;;;;4935125;29;20036;-85
2022/09/08 08:10:28;;;;;;;16.95;2.60;;;16.00;99.90;;;;;;4937555;29;20477;-85
2022/09/08 08:12:54;;;;;;;19.50;2.58;;;16.10;99.90;;;;;;4937398;29;20119;-85
2022/09/08 08:15:26;;;;;;;9.75;2.15;;;16.10;99.90;;;;;;4937413;29;20103;-85
2022/09/08 08:18:11;;;;;;;14.15;2.75;;;16.20;99.90;;;;;;4937275;29;20023;-85
2022/09/08 08:20:56;;;;;;;9.18;1.90;;;16.20;99.90;;;;;;4937048;29;20020;-85
2022/09/08 08:23:34;;;;;;;20.98;2.40;;;16.40;99.90;;;;;;4937093;29;20034;-85
2022/09/08 08:26:21;;;;;;;13.02;2.50;;;16.60;99.90;;;;;;4937498;29;20046;-84
2022/09/08 08:28:51;;;;;;;11.82;2.28;;;17.00;99.90;;;;;;4935412;29;20028;-84
2022/09/08 08:31:56;;;;;;;16.98;3.35;;;17.20;99.90;;;;;;4935921;29;20051;-84
2022/09/08 08:34:28;;;;;;;17.35;3.15;;;17.50;99.90;;;;;;4935580;29;20031;-83
2022/09/08 08:37:01;;;;;;;17.00;2.90;;;17.60;99.90;;;;;;4940447;28;20098;-83
2022/09/08 08:39:28;;;;;;;14.68;2.53;;;17.50;99.90;;;;;;4955707;28;20035;-82
2022/09/08 08:42:29;;;;;;;23.05;4.25;;;17.30;99.90;;;;;;4955832;28;20019;-82
2022/09/08 08:45:07;;;;;;;14.63;3.92;;;17.30;99.90;;;;;;4955760;28;20035;-82
2022/09/08 08:47:45;;;;;;;18.25;3.42;;;17.20;99.90;;;;;;4955542;28;20019;-84
2022/09/08 08:50:33;;;;;;;23.25;2.53;;;17.00;99.90;;;;;;4955334;28;20027;-82
2022/09/08 08:53:29;;;;;;;17.55;2.85;;;16.70;99.90;;;;;;4954615;28;20485;-82
2022/09/08 08:56:12;;;;;;;17.55;2.30;;;16.50;99.90;;;;;;4955184;28;20046;-85
2022/09/08 08:59:06;;;;;;;13.70;1.92;;;16.70;99.90;;;;;;4970490;28;20019;-86
2022/09/08 09:01:51;;;;;;;11.55;2.78;;;17.00;99.90;;;;;;4955563;28;20488;-85
2022/09/08 09:04:51;;;;;;;15.88;2.95;;;17.30;99.90;;;;;;4955177;28;20027;-85
2022/09/08 09:07:37;;;;;;;13.43;2.25;;;17.30;99.90;;;;;;4954973;28;20110;-86
2022/09/08 09:10:27;;;;;;;7.45;1.63;;;16.70;99.90;;;;;;4955250;28;20034;-83
2022/09/08 09:13:30;;;;;;;8.45;1.80;;;16.10;99.90;;;;;;4955172;28;20064;-84
2022/09/08 09:16:32;;;;;;;12.50;2.55;;;15.80;99.90;;;;;;4953545;28;20515;-85
2022/09/08 09:19:26;;;;;;;11.57;2.53;;;16.00;99.90;;;;;;4953882;28;20030;-84
2022/09/08 09:21:57;;;;;;;11.93;2.58;;;16.10;99.90;;;;;;4953815;28;20039;-83
2022/09/08 09:24:49;;;;;;;21.63;2.95;;;16.30;99.90;;;;;;4955154;28;20023;-83
2022/09/08 09:27:45;;;;;;;13.05;2.50;;;16.30;99.90;;;;;;4955583;28;20035;-85
2022/09/08 09:30:24;;;;;;;18.10;2.72;;;16.20;99.90;;;;;;4946094;28;20031;-86
2022/09/08 09:33:19;;;;;;;14.45;3.28;;;16.30;99.90;;;;;;4953700;28;20027;-85
2022/09/08 09:36:05;;;;;;;17.30;3.33;;;16.40;99.90;;;;;;4954475;28;20035;-83
2022/09/08 09:38:46;;;;;;;16.35;3.33;;;16.80;99.90;;;;;;4955081;28;20027;-83
2022/09/08 09:41:35;;;;;;;22.13;4.03;;;17.30;99.90;;;;;;4954838;28;20039;-84
2022/09/08 09:44:18;;;;;;;21.35;3.40;;;17.60;99.90;;;;;;4954743;28;20034;-83
2022/09/08 09:47:05;;;;;;;18.95;2.75;;;18.80;99.90;;;;;;4954118;28;20027;-83
2022/09/08 09:49:48;;;;;;;23.92;3.20;;;18.80;99.90;;;;;;4954522;28;20027;-84
2022/09/08 09:52:17;;;;;;;7.10;1.83;;;19.10;99.90;;;;;;4954396;28;20035;-82
2022/09/08 09:55:00;;;;;;;12.75;1.70;;;19.10;99.90;;;;;;4954359;28;20030;-83
2022/09/08 09:57:59;;;;;;;12.63;1.75;;;20.00;99.90;;;;;;4954165;28;20050;-83
2022/09/08 10:00:30;;;;;;;12.00;2.22;;;20.50;99.90;;;;;;4953929;28;20023;-84
2022/09/08 10:02:56;;;;;;;11.98;1.77;;;21.30;99.90;;;;;;4954631;28;20023;-83
2022/09/08 10:05:45;;;;;;;12.60;1.85;;;22.20;99.90;;;;;;4954082;28;20027;-82
2022/09/08 10:08:14;;;;;;;14.93;2.20;;;22.80;99.90;;;;;;4954015;28;20030;-82
2022/09/08 10:10:55;;;;;;;8.82;1.50;;;22.90;99.90;;;;;;4954217;29;20081;-82
2022/09/08 10:13:45;;;;;;;13.75;1.83;;;22.30;99.90;;;;;;4954241;28;20030;-82
2022/09/08 10:16:35;;;;;;;12.38;1.70;;;21.30;99.90;;;;;;4954140;28;20484;-82
2022/09/08 10:19:13;;;;;;;14.07;2.13;;;20.60;99.90;;;;;;4952766;28;20038;-81
2022/09/08 10:21:56;;;;;;;10.05;1.80;;;19.90;99.90;;;;;;4953938;29;20027;-82
2022/09/08 10:24:49;;;;;;;11.63;2.08;;;19.20;99.90;;;;;;4954040;28;20440;-82
2022/09/08 10:27:38;;;;;;;15.23;2.25;;;18.60;99.90;;;;;;4954379;28;20051;-81
2022/09/08 10:30:19;;;;;;;15.63;2.10;;;18.30;99.90;;;;;;4953793;28;20495;-80
2022/09/08 10:33:11;;;;;;;15.23;2.20;;;18.00;99.90;;;;;;4953721;28;20024;-82
2022/09/08 10:35:47;;;;;;;18.50;3.17;;;17.90;99.90;;;;;;4952417;28;20376;-81
2022/09/08 10:38:19;;;;;;;15.55;2.70;;;17.90;99.90;;;;;;4953747;28;20059;-83
2022/09/08 10:40:54;;;;;;;;;;;18.10;99.90;;;;;;4954088;28;20365;-81
2022/09/08 10:43:23;;;;;;;17.45;2.10;;;18.40;99.90;;;;;;4953524;28;20506;-82
2022/09/08 10:46:12;;;;;;;10.00;1.85;;;18.70;99.90;;;;;;4953722;28;20086;-82
2022/09/08 10:48:49;;;;;;;15.02;2.00;;;18.60;99.90;;;;;;4953565;28;20027;-82
2022/09/08 10:51:21;;;;;;;14.45;2.30;;;18.60;99.90;;;;;;4953084;28;20383;-82
2022/09/08 10:54:02;;;;;;;6.20;1.75;;;18.50;99.90;;;;;;4953466;28;20027;-84
2022/09/08 10:56:28;;;;;;;19.63;2.30;;;18.50;99.90;;;;;;4953566;28;20404;-81
2022/09/08 10:59:18;;;;;;;17.58;1.92;;;18.60;99.90;;;;;;4953684;28;20053;-81
2022/09/08 11:02:05;;;;;;;12.52;1.80;;;18.50;99.90;;;;;;4953677;28;20023;-81
2022/09/08 11:04:51;;;;;;;11.82;1.55;;;18.30;99.90;;;;;;4953589;28;20055;-81
2022/09/08 11:07:37;;;;;;;6.53;2.03;;;18.10;99.90;;;;;;4953025;28;20023;-82
2022/09/08 11:10:36;;;;;;;12.00;1.70;;;17.90;99.90;;;;;;4953346;28;20031;-82
2022/09/08 11:13:29;;;;;;;12.63;2.13;;;17.90;99.90;;;;;;4954355;28;20023;-81
2022/09/08 11:16:10;;;;;;;10.77;2.00;;;18.10;99.90;;;;;;4957139;28;20039;-81
2022/09/08 11:19:06;;;;;;;12.90;1.90;;;18.20;99.90;;;;;;4957295;28;20105;-81
2022/09/08 11:21:47;;;;;;;8.20;1.95;;;18.30;99.90;;;;;;4937962;28;20078;-80
2022/09/08 11:24:34;;;;;;;18.88;2.55;;;19.20;99.90;;;;;;4957164;28;20416;-80
2022/09/08 11:27:11;;;;;;;12.52;1.70;;;19.80;99.90;;;;;;4957827;28;20024;-80
2022/09/08 11:29:38;;;;;;;12.43;2.13;;;19.70;99.90;;;;;;4957150;28;20038;-81
2022/09/08 11:32:34;;;;;;;13.10;2.20;;;19.60;99.90;;;;;;4957039;28;20046;-86
2022/09/08 11:35:19;;;;;;;14.95;1.80;;;19.30;99.90;;;;;;4957138;28;20034;-82
2022/09/08 11:38:03;;;;;;;12.45;1.88;;;18.60;99.90;;;;;;4957009;28;20059;-82
2022/09/08 11:40:48;;;;;;;7.60;1.52;;;18.40;99.90;;;;;;4957123;28;20055;-82
2022/09/08 11:43:32;;;;;;;12.90;1.98;;;18.10;99.90;;;;;;4956830;28;20055;-82
2022/09/08 11:46:04;;;;;;;10.52;1.63;;;18.00;99.90;;;;;;4957033;28;20452;-83
2022/09/08 11:48:54;;;;;;;7.22;0.57;;;17.60;99.90;;;;;;4957143;28;20118;-85
2022/09/08 11:51:35;;;;;;;4.00;0.80;;;16.40;99.90;;;;;;4956595;28;20107;-84
2022/09/08 11:54:25;;;;;;;4.13;0.82;;;15.70;99.90;;;;;;4955808;28;20074;-86
2022/09/08 11:57:05;;;;;;;8.00;1.00;;;15.40;99.90;;;;;;4956457;28;20125;-84
2022/09/08 11:59:44;;;;;;;16.08;2.30;;;15.30;99.90;;;;;;4956794;28;20382;-82
2022/09/08 12:02:16;;;;;;;22.05;2.85;;;15.30;99.90;;;;;;4956668;28;20019;-83
2022/09/08 12:04:59;;;;;;;19.08;2.78;;;15.50;99.90;;;;;;4955069;28;20388;-83
2022/09/08 12:07:28;;;;;;;17.27;3.45;;;15.60;99.90;;;;;;4955919;28;20028;-84
2022/09/08 12:10:00;;;;;;;17.67;2.40;;;15.80;99.90;;;;;;4956588;28;20027;-82
2022/09/08 12:12:39;;;;;;;409.48;24.83;;;16.10;99.90;;;;;;4956527;28;20116;-82
2022/09/08 12:15:33;;;;;;;536.30;30.95;;;17.80;99.90;;;;;;4956348;28;20102;-81
2022/09/08 12:18:01;;;;;;;24.70;2.80;;;21.10;99.90;;;;;;4955854;28;20487;-81
2022/09/08 12:20:46;;;;;;;13.63;1.73;;;22.80;99.90;;;;;;4955931;28;20035;-82
2022/09/08 12:23:52;;;;;;;19.65;1.92;;;24.60;99.90;;;;;;4956070;28;20032;-82
2022/09/08 12:26:34;;;;;;;13.68;1.88;;;23.60;99.90;;;;;;4956495;28;20024;-82
2022/09/08 12:29:09;;;;;;;8.90;1.42;;;21.90;99.90;;;;;;4955066;28;20019;-82
2022/09/08 12:32:02;;;;;;;8.02;1.55;;;20.70;99.90;;;;;;4956039;28;20077;-82
2022/09/08 12:35:00;;;;;;;17.88;1.88;;;19.80;99.90;;;;;;4955886;28;20519;-82
2022/09/08 12:37:44;;;;;;;12.43;1.85;;;19.20;99.90;;;;;;4955574;28;20049;-81
2022/09/08 12:40:32;;;;;;;11.55;2.15;;;18.70;99.90;;;;;;4955979;28;20026;-81
2022/09/08 12:43:22;;;;;;;11.20;2.10;;;18.60;99.90;;;;;;4955847;28;20031;-80
2022/09/08 12:46:10;;;;;;;11.07;1.27;;;18.60;99.90;;;;;;4955847;28;20043;-81
2022/09/08 12:48:53;;;;;;;17.73;2.53;;;18.60;99.90;;;;;;4956022;29;20062;-81
2022/09/08 12:51:34;;;;;;;16.30;2.30;;;19.00;99.90;;;;;;4955410;28;20037;-81
2022/09/08 12:54:23;;;;;;;14.60;2.47;;;19.00;99.90;;;;;;4955922;28;20027;-83
2022/09/08 12:56:49;;;;;;;17.13;2.88;;;18.80;99.90;;;;;;4955561;28;20035;-83
2022/09/08 12:59:33;;;;;;;11.45;1.83;;;18.40;99.90;;;;;;4955657;29;20539;-82
2022/09/08 13:02:24;;;;;;;22.00;2.47;;;18.20;99.90;;;;;;4955639;28;20058;-83
2022/09/08 13:05:27;;;;;;;14.43;1.88;;;18.00;99.90;;;;;;4955382;28;20062;-82
2022/09/08 13:07:59;;;;;;;14.02;2.42;;;17.90;99.90;;;;;;4954964;28;20035;-81
2022/09/08 13:10:24;;;;;;;;;;;18.20;99.90;;;;;;4955778;28;20050;-80
2022/09/08 13:13:11;;;;;;;11.18;1.40;;;18.90;99.90;;;;;;4955332;28;19953;-79
2022/09/08 13:15:50;;;;;;;15.48;2.58;;;19.30;99.90;;;;;;4955428;28;20114;-80
2022/09/08 13:18:40;;;;;;;17.92;2.17;;;18.90;99.90;;;;;;4955108;28;20031;-82
2022/09/08 13:21:14;;;;;;;9.95;1.67;;;18.30;99.90;;;;;;4955000;28;20027;-82
2022/09/08 13:23:45;;;;;;;6.78;1.27;;;17.70;99.90;;;;;;4955068;28;20023;-83
2022/09/08 13:26:14;;;;;;;;;;;17.20;99.90;;;;;;4955972;28;20027;-82